Time;durP1;ratioP1;P1;durP2;ratioP2;P2;SDS_P1;SDS_P2;PMS_P1;PMS_P2;Temp;Humidity;BMP_temperature;BMP_pressure;BME280_temperature;BME280_humidity;BME280_pressure;Samples;Min_cycle;Max_cycle;Signal;HPM_P1;HPM_P2
2022/10/22 00:01:04;;;;;;;7.80;4.22;;;;;;;13.03;100.00;100839.31;5019446;28;20473;-78
2022/10/22 00:03:29;;;;;;;7.95;3.60;;;;;;;13.03;100.00;100836.69;5019089;28;20033;-78
2022/10/22 00:05:55;;;;;;;8.52;3.58;;;;;;;13.02;100.00;100842.88;5031285;28;20029;-79
2022/10/22 00:08:20;;;;;;;6.10;3.40;;;;;;;13.01;100.00;100836.00;5018740;28;20040;-78
2022/10/22 00:10:46;;;;;;;7.47;3.90;;;;;;;12.96;100.00;100835.59;5017306;28;20024;-78
2022/10/22 00:13:11;;;;;;;7.55;4.05;;;;;;;12.95;100.00;100840.00;5025970;28;20477;-79
2022/10/22 00:15:36;;;;;;;7.40;4.85;;;;;;;12.84;100.00;100836.72;5027021;28;20062;-79
2022/10/22 00:18:02;;;;;;;7.35;3.85;;;;;;;12.94;100.00;100845.34;5026287;28;20037;-79
2022/10/22 00:20:27;;;;;;;5.78;3.38;;;;;;;12.95;100.00;100841.78;5007809;28;20029;-79
2022/10/22 00:22:53;;;;;;;7.85;3.20;;;;;;;12.92;100.00;100842.06;5025474;28;20021;-79
2022/10/22 00:25:18;;;;;;;6.45;3.58;;;;;;;12.91;100.00;100856.88;5033569;28;20528;-79
2022/10/22 00:27:43;;;;;;;7.38;3.40;;;;;;;12.93;100.00;100856.72;5038185;28;20485;-78
2022/10/22 00:30:09;;;;;;;7.30;3.33;;;;;;;12.86;100.00;100847.84;5024854;28;20493;-79
2022/10/22 00:32:35;;;;;;;9.43;3.70;;;;;;;12.88;100.00;100861.53;5021083;28;20456;-79
2022/10/22 00:35:03;;;;;;;6.75;3.88;;;;;;;12.79;100.00;100847.56;5004769;28;20028;-79
2022/10/22 00:37:29;;;;;;;8.07;3.92;;;;;;;12.82;100.00;100851.66;5007230;28;20030;-79
2022/10/22 00:39:54;;;;;;;6.50;3.30;;;;;;;12.79;100.00;100842.38;5023528;28;20055;-79
2022/10/22 00:42:23;;;;;;;9.65;4.38;;;;;;;12.80;100.00;100853.59;5019024;28;20033;-79
2022/10/22 00:45:10;;;;;;;8.50;4.13;;;;;;;12.82;100.00;100862.06;5018447;28;20553;-78
2022/10/22 00:47:49;;;;;;;8.20;3.90;;;;;;;12.74;100.00;100849.75;5005578;28;20040;-79
2022/10/22 00:50:21;;;;;;;10.40;4.10;;;;;;;12.71;100.00;100866.47;5021037;28;20300;-79
2022/10/22 00:52:46;;;;;;;7.72;3.97;;;;;;;12.59;100.00;100857.16;5001447;28;20468;-79
2022/10/22 00:55:13;;;;;;;8.07;4.45;;;;;;;12.58;100.00;100845.13;5020137;28;20096;-79
2022/10/22 00:57:39;;;;;;;7.80;3.85;;;;;;;12.63;100.00;100855.94;5027401;28;20033;-79
2022/10/22 01:00:06;;;;;;;5.60;3.28;;;;;;;12.65;100.00;100851.41;5006276;28;20321;-79
2022/10/22 01:02:31;;;;;;;8.68;4.00;;;;;;;12.59;100.00;100851.97;5006436;28;20026;-79
2022/10/22 01:04:57;;;;;;;7.47;3.22;;;;;;;12.58;100.00;100850.31;5018652;28;20507;-79
2022/10/22 01:07:24;;;;;;;7.60;4.13;;;;;;;12.57;100.00;100848.69;5011108;28;20481;-79
2022/10/22 01:10:05;;;;;;;8.43;3.38;;;;;;;12.52;100.00;100848.28;5007853;28;20048;-79
2022/10/22 01:13:10;;;;;;;6.47;3.35;;;;;;;12.58;100.00;100855.53;5009243;28;20025;-79
2022/10/22 01:15:53;;;;;;;8.20;3.80;;;;;;;12.53;100.00;100859.50;4985763;28;20123;-79
2022/10/22 01:18:27;;;;;;;7.50;3.38;;;;;;;12.47;100.00;100855.66;5030454;28;20033;-79
2022/10/22 01:21:16;;;;;;;7.53;3.50;;;;;;;12.47;100.00;100858.25;5014920;28;20030;-79
2022/10/22 01:23:50;;;;;;;;;;;;;;;12.52;100.00;100861.28;5017547;28;20313;-79
2022/10/22 01:26:33;;;;;;;6.93;3.60;;;;;;;12.40;100.00;100849.38;5038697;28;20321;-79
2022/10/22 01:29:15;;;;;;;8.18;3.80;;;;;;;12.38;100.00;100853.84;5022282;28;20156;-79
2022/10/22 01:31:52;;;;;;;6.80;3.38;;;;;;;12.33;100.00;100850.84;5022090;28;20162;-79
2022/10/22 01:34:18;;;;;;;8.60;3.58;;;;;;;12.32;100.00;100849.19;5025079;28;20116;-79
2022/10/22 01:36:45;;;;;;;7.78;3.83;;;;;;;12.27;100.00;100846.19;5030183;28;20025;-79
2022/10/22 01:39:14;;;;;;;6.90;3.97;;;;;;;12.23;100.00;100846.47;5010145;28;20025;-79
2022/10/22 01:41:44;;;;;;;5.60;3.28;;;;;;;12.23;100.00;100846.47;5028875;28;20457;-79
2022/10/22 01:44:29;;;;;;;9.25;4.25;;;;;;;12.22;100.00;100839.63;5035766;28;20139;-79
2022/10/22 01:47:08;;;;;;;7.63;4.07;;;;;;;12.16;100.00;100841.94;5028881;28;20025;-79
2022/10/22 01:49:58;;;;;;;8.70;4.03;;;;;;;12.16;100.00;100845.38;5014528;28;20033;-78
2022/10/22 01:52:41;;;;;;;9.50;4.25;;;;;;;12.11;100.00;100833.72;5019113;28;20030;-79
2022/10/22 01:55:34;;;;;;;6.20;3.40;;;;;;;12.09;100.00;100841.66;5009110;28;20030;-78
2022/10/22 01:58:18;;;;;;;8.00;4.10;;;;;;;12.10;100.00;100845.91;5019807;28;20120;-78
2022/10/22 02:00:54;;;;;;;8.75;4.30;;;;;;;12.05;100.00;100852.47;5028250;28;20087;-79
2022/10/22 02:03:27;;;;;;;8.73;3.95;;;;;;;11.98;100.00;100841.75;5011694;28;20642;-79
2022/10/22 02:06:03;;;;;;;5.47;3.67;;;;;;;12.03;100.00;100844.78;5038419;28;20036;-79
2022/10/22 02:08:32;;;;;;;9.90;4.25;;;;;;;11.99;100.00;100843.44;5040334;28;20018;-79
2022/10/22 02:10:59;;;;;;;7.47;4.05;;;;;;;11.90;100.00;100833.81;5014783;28;20029;-79
2022/10/22 02:13:35;;;;;;;8.98;4.07;;;;;;;11.94;100.00;100843.00;5021752;28;20017;-78
2022/10/22 02:16:03;;;;;;;8.35;4.22;;;;;;;11.91;100.00;100830.25;5013474;28;20064;-78
2022/10/22 02:18:31;;;;;;;7.55;4.03;;;;;;;11.95;100.00;100847.25;5015546;28;20052;-79
2022/10/22 02:20:58;;;;;;;11.48;4.25;;;;;;;11.90;100.00;100845.03;5035084;28;20043;-79
2022/10/22 02:23:24;;;;;;;9.35;5.13;;;;;;;11.90;100.00;100844.22;5005732;28;20105;-78
2022/10/22 02:25:57;;;;;;;8.85;4.10;;;;;;;11.85;100.00;100830.78;5039259;28;20559;-78
2022/10/22 02:28:31;;;;;;;10.85;5.10;;;;;;;11.89;100.00;100838.19;5005713;28;20118;-78
2022/10/22 02:31:05;;;;;;;10.68;4.72;;;;;;;11.85;100.00;100836.81;5021035;28;20357;-78
2022/10/22 02:33:35;;;;;;;10.60;5.63;;;;;;;11.85;100.00;100842.00;5013311;28;20113;-79
2022/10/22 02:36:02;;;;;;;8.35;4.60;;;;;;;11.85;100.00;100841.19;5022808;28;20033;-79
2022/10/22 02:38:29;;;;;;;10.63;5.35;;;;;;;11.77;100.00;100828.84;5031911;28;20520;-78
2022/10/22 02:40:55;;;;;;;9.35;5.68;;;;;;;11.84;100.00;100834.34;5024710;28;20030;-79
2022/10/22 02:43:23;;;;;;;9.80;5.38;;;;;;;11.84;100.00;100829.16;5024607;28;20026;-80
2022/10/22 02:45:48;;;;;;;10.85;4.60;;;;;;;11.89;100.00;100832.19;5022832;28;20104;-79
2022/10/22 02:48:14;;;;;;;10.35;5.20;;;;;;;11.88;100.00;100835.75;5017263;28;20116;-79
2022/10/22 02:50:39;;;;;;;8.55;5.38;;;;;;;11.90;100.00;100839.03;5024637;28;20405;-78
2022/10/22 02:53:05;;;;;;;10.32;5.15;;;;;;;11.89;100.00;100837.38;5023103;28;20452;-79
2022/10/22 02:55:30;;;;;;;8.77;5.43;;;;;;;11.85;100.00;100826.41;5010856;28;20099;-79
2022/10/22 02:57:55;;;;;;;10.10;5.28;;;;;;;11.88;100.00;100835.75;5024617;28;20021;-79
2022/10/22 03:00:21;;;;;;;10.35;5.00;;;;;;;11.89;100.00;100837.38;5007104;28;20029;-79
2022/10/22 03:02:46;;;;;;;10.82;5.63;;;;;;;11.88;100.00;100833.16;5011871;28;20454;-79
2022/10/22 03:05:12;;;;;;;9.43;5.07;;;;;;;11.93;100.00;100828.38;5018691;28;20034;-80
2022/10/22 03:07:38;;;;;;;7.65;5.10;;;;;;;11.82;100.00;100831.91;5017844;28;20053;-79
2022/10/22 03:10:04;;;;;;;11.65;6.32;;;;;;;11.90;100.00;100844.22;5024601;28;20031;-79
2022/10/22 03:12:29;;;;;;;8.88;5.55;;;;;;;11.88;100.00;100852.16;5020396;28;20034;-79
2022/10/22 03:14:54;;;;;;;11.55;5.75;;;;;;;11.91;100.00;100851.06;5013149;28;20017;-79
2022/10/22 03:17:20;;;;;;;10.70;4.90;;;;;;;11.90;100.00;100844.22;5021260;28;20061;-78
2022/10/22 03:19:45;;;;;;;10.52;5.50;;;;;;;11.92;100.00;100850.91;5017925;28;20059;-79
2022/10/22 03:22:25;;;;;;;8.15;5.43;;;;;;;11.92;100.00;100842.28;5034392;28;20025;-79
2022/10/22 03:24:54;;;;;;;15.68;6.28;;;;;;;11.91;100.00;100845.84;5015982;28;20017;-79
2022/10/22 03:27:21;;;;;;;10.55;5.60;;;;;;;11.85;100.00;100830.78;5012622;28;20025;-78
2022/10/22 03:29:50;;;;;;;10.43;5.38;;;;;;;11.89;100.00;100850.38;5024747;28;20017;-79
2022/10/22 03:32:16;;;;;;;10.95;5.93;;;;;;;11.90;100.00;100859.81;5036869;28;20044;-80
2022/10/22 03:34:41;;;;;;;8.52;5.47;;;;;;;11.89;100.00;100858.16;5009995;28;20025;-79
2022/10/22 03:37:06;;;;;;;10.80;5.07;;;;;;;11.87;100.00;100860.06;5028187;28;20052;-79
2022/10/22 03:39:35;;;;;;;11.98;5.05;;;;;;;11.88;100.00;100857.34;5027294;28;20028;-79
2022/10/22 03:42:01;;;;;;;10.15;4.55;;;;;;;11.89;100.00;100858.16;5027250;28;20048;-79
2022/10/22 03:44:27;;;;;;;11.07;5.30;;;;;;;11.93;100.00;100875.16;5029384;28;20061;-79
2022/10/22 03:46:53;;;;;;;12.25;5.65;;;;;;;11.90;100.00;100880.59;5027603;28;20053;-79
2022/10/22 03:49:18;;;;;;;9.27;5.05;;;;;;;11.91;100.00;100871.84;5026054;28;20021;-78
2022/10/22 03:51:44;;;;;;;9.88;4.70;;;;;;;11.93;100.00;100867.34;5025836;28;20022;-79
2022/10/22 03:54:09;;;;;;;10.55;5.35;;;;;;;11.92;100.00;100874.31;5036579;28;20381;-79
2022/10/22 03:56:34;;;;;;;11.75;5.00;;;;;;;11.92;100.00;100874.31;5013332;28;20030;-79
2022/10/22 03:59:00;;;;;;;10.05;4.72;;;;;;;11.94;100.00;100876.78;5029626;28;20086;-79
2022/10/22 04:01:27;;;;;;;10.82;4.95;;;;;;;11.95;100.00;100873.22;5036424;28;20064;-79
2022/10/22 04:03:53;;;;;;;10.20;4.90;;;;;;;11.94;100.00;100882.00;4998758;28;20054;-79
2022/10/22 04:06:19;;;;;;;6.60;4.20;;;;;;;11.93;100.00;100880.34;5009063;28;20049;-79
2022/10/22 04:08:45;;;;;;;11.65;5.35;;;;;;;11.88;100.00;100878.16;5036413;28;20800;-79
2022/10/22 04:11:12;;;;;;;7.95;5.45;;;;;;;11.91;100.00;100885.66;5007255;28;20029;-79
2022/10/22 04:13:38;;;;;;;8.65;5.03;;;;;;;11.90;100.00;100886.63;5017858;28;20045;-79
2022/10/22 04:16:09;;;;;;;12.18;5.35;;;;;;;11.89;100.00;100889.34;5025925;28;20092;-79
2022/10/22 04:18:35;;;;;;;9.95;4.88;;;;;;;11.92;100.00;100886.47;5027476;28;20029;-79
2022/10/22 04:21:00;;;;;;;11.13;5.60;;;;;;;11.90;100.00;100885.81;5027361;28;20040;-79
2022/10/22 04:23:26;;;;;;;9.93;5.15;;;;;;;11.87;100.00;100880.84;5026000;28;20396;-79
2022/10/22 04:26:00;;;;;;;11.55;5.03;;;;;;;11.93;100.00;100895.94;5024958;28;20190;-79
2022/10/22 04:28:26;;;;;;;9.95;5.18;;;;;;;11.86;100.00;100877.44;5024760;28;20068;-79
2022/10/22 04:30:51;;;;;;;10.18;4.85;;;;;;;11.89;100.00;100881.56;5026740;28;20060;-79
2022/10/22 04:33:17;;;;;;;11.10;5.05;;;;;;;11.88;100.00;100877.31;5034614;28;20025;-79
2022/10/22 04:35:42;;;;;;;9.88;5.32;;;;;;;11.88;100.00;100882.53;5026685;28;20033;-79
2022/10/22 04:38:08;;;;;;;9.45;5.00;;;;;;;11.92;100.00;100883.88;5008452;28;20454;-79
2022/10/22 04:40:33;;;;;;;11.43;4.88;;;;;;;11.94;100.00;100882.00;5029932;28;20056;-79
2022/10/22 04:42:58;;;;;;;8.65;4.60;;;;;;;11.87;100.00;100879.09;5030200;28;20036;-80
2022/10/22 04:45:24;;;;;;;11.73;4.28;;;;;;;11.93;100.00;100891.56;5014674;28;20033;-79
2022/10/22 04:47:49;;;;;;;10.90;4.30;;;;;;;11.91;100.00;100892.63;5027512;28;20045;-79
2022/10/22 04:50:15;;;;;;;17.63;5.05;;;;;;;11.93;100.00;100885.56;5034178;28;20033;-78
2022/10/22 04:52:40;;;;;;;9.73;4.55;;;;;;;11.91;100.00;100892.63;5017261;28;20021;-79
2022/10/22 04:55:06;;;;;;;10.25;4.88;;;;;;;11.87;100.00;100886.06;5018747;28;20033;-79
2022/10/22 04:57:31;;;;;;;11.05;4.32;;;;;;;11.88;100.00;100892.91;5025288;28;20501;-79
2022/10/22 04:59:57;;;;;;;11.10;4.93;;;;;;;11.86;100.00;100897.41;5028282;28;20025;-79
2022/10/22 05:02:22;;;;;;;10.48;4.90;;;;;;;11.91;100.00;100900.44;5031510;28;20026;-79
2022/10/22 05:04:47;;;;;;;11.57;4.38;;;;;;;11.91;100.00;100903.03;5007601;28;20108;-79
2022/10/22 05:07:13;;;;;;;8.95;4.10;;;;;;;11.89;100.00;100904.94;5003100;28;20030;-80
2022/10/22 05:09:38;;;;;;;11.18;4.68;;;;;;;11.85;100.00;100898.38;5016656;28;20025;-80
2022/10/22 05:12:05;;;;;;;11.98;5.07;;;;;;;11.91;100.00;100903.03;5030264;28;20440;-80
2022/10/22 05:14:30;;;;;;;9.48;4.55;;;;;;;11.91;100.00;100903.84;5024026;28;20037;-79
2022/10/22 05:16:56;;;;;;;11.65;4.70;;;;;;;11.90;100.00;100912.59;5007169;28;20401;-80
2022/10/22 05:19:28;;;;;;;9.52;4.30;;;;;;;11.92;100.00;100915.06;5024597;28;20021;-80
2022/10/22 05:21:59;;;;;;;11.38;4.80;;;;;;;11.90;100.00;100904.81;5006590;28;20512;-80
2022/10/22 05:24:25;;;;;;;12.93;4.97;;;;;;;11.90;100.00;100909.19;5008113;28;20025;-79
2022/10/22 05:26:52;;;;;;;10.60;4.40;;;;;;;11.86;100.00;100894.81;5032335;28;20034;-79
2022/10/22 05:29:18;;;;;;;11.40;4.53;;;;;;;11.89;100.00;100915.34;5024804;28;20373;-79
2022/10/22 05:31:44;;;;;;;14.40;4.47;;;;;;;11.87;100.00;100910.28;5024163;28;20029;-78
2022/10/22 05:34:10;;;;;;;9.88;4.75;;;;;;;11.88;100.00;100913.72;5024700;28;20039;-79
2022/10/22 05:36:35;;;;;;;9.77;4.55;;;;;;;11.88;100.00;100913.72;5024477;28;20030;-80
2022/10/22 05:39:01;;;;;;;8.13;3.75;;;;;;;11.80;100.00;100910.91;5025477;28;20031;-79
2022/10/22 05:41:27;;;;;;;11.10;4.82;;;;;;;11.88;100.00;100924.09;5022844;28;20031;-80
2022/10/22 05:43:59;;;;;;;11.02;4.35;;;;;;;11.85;100.00;100919.16;5007318;28;20021;-81
2022/10/22 05:46:29;;;;;;;11.43;4.55;;;;;;;11.88;100.00;100929.31;5033295;28;20035;-80
2022/10/22 05:48:58;;;;;;;11.63;5.00;;;;;;;11.82;100.00;100927.22;5028227;28;20033;-80
2022/10/22 05:51:25;;;;;;;12.68;4.70;;;;;;;11.86;100.00;100931.19;5006655;28;20029;-80
2022/10/22 05:53:53;;;;;;;12.13;4.57;;;;;;;11.87;100.00;100932.84;5024606;28;20029;-81
2022/10/22 05:56:20;;;;;;;9.18;4.25;;;;;;;11.87;100.00;100927.63;5013974;28;20067;-80
2022/10/22 05:58:46;;;;;;;13.52;4.75;;;;;;;11.89;100.00;100936.16;5019620;28;20540;-80
2022/10/22 06:01:20;;;;;;;9.23;4.18;;;;;;;11.89;100.00;100946.53;5006890;28;20029;-81
2022/10/22 06:03:46;;;;;;;10.73;4.18;;;;;;;11.88;100.00;100943.13;5019350;28;20124;-80
2022/10/22 06:06:17;;;;;;;8.80;4.22;;;;;;;11.90;100.00;100950.78;5032798;28;20028;-80
2022/10/22 06:08:43;;;;;;;9.95;4.03;;;;;;;11.91;100.00;100949.81;5026160;28;20025;-80
2022/10/22 06:11:09;;;;;;;14.00;4.22;;;;;;;11.89;100.00;100960.34;5024731;28;20033;-80
2022/10/22 06:13:34;;;;;;;9.82;4.32;;;;;;;11.83;100.00;100952.25;5024388;28;20029;-80
2022/10/22 06:16:00;;;;;;;13.07;4.88;;;;;;;11.88;100.00;100950.09;5014739;28;20414;-81
2022/10/22 06:18:25;;;;;;;15.95;5.72;;;;;;;11.84;100.00;100949.53;5011936;28;20044;-80
2022/10/22 06:20:50;;;;;;;8.63;4.05;;;;;;;11.89;100.00;100962.13;5017183;28;20029;-81
2022/10/22 06:23:16;;;;;;;11.32;4.35;;;;;;;11.80;100.00;100950.69;5023760;28;20493;-80
2022/10/22 06:25:42;;;;;;;12.75;4.43;;;;;;;11.82;100.00;100961.00;5027064;28;20018;-80
2022/10/22 06:28:08;;;;;;;11.25;4.40;;;;;;;11.83;100.00;100967.84;5023593;28;20032;-80
2022/10/22 06:30:35;;;;;;;10.20;3.90;;;;;;;11.89;100.00;100982.94;5023120;28;20029;-80
2022/10/22 06:33:01;;;;;;;10.52;4.22;;;;;;;11.89;100.00;100988.13;5027177;28;20037;-80
2022/10/22 06:35:26;;;;;;;10.68;4.65;;;;;;;11.84;100.00;100985.09;5026468;28;20033;-81
2022/10/22 06:37:51;;;;;;;8.30;3.97;;;;;;;11.88;100.00;100991.69;5024697;28;20471;-80
2022/10/22 06:40:18;;;;;;;15.05;4.65;;;;;;;11.81;100.00;100986.16;5008106;28;20040;-80
2022/10/22 06:42:43;;;;;;;10.40;5.05;;;;;;;11.85;100.00;100991.91;5022253;28;20014;-80
2022/10/22 06:45:09;;;;;;;10.57;4.60;;;;;;;11.90;100.00;101000.16;5003220;28;20112;-80
2022/10/22 06:47:34;;;;;;;10.32;4.00;;;;;;;11.86;100.00;100990.97;5024526;28;20026;-80
2022/10/22 06:50:00;;;;;;;13.18;4.32;;;;;;;11.89;100.00;101003.72;5026157;28;20389;-80
2022/10/22 06:52:25;;;;;;;8.88;4.40;;;;;;;11.89;100.00;101003.72;5027291;28;20366;-80
2022/10/22 06:54:50;;;;;;;11.57;4.70;;;;;;;11.88;100.00;101007.28;5028307;28;20033;-80
2022/10/22 06:57:18;;;;;;;11.38;5.10;;;;;;;11.94;100.00;101017.16;5027123;28;20032;-81
2022/10/22 06:59:45;;;;;;;8.27;4.13;;;;;;;11.93;100.00;101020.72;5027615;28;20029;-80
2022/10/22 07:02:10;;;;;;;14.77;4.38;;;;;;;11.94;100.00;101027.56;5024933;28;20029;-81
2022/10/22 07:04:36;;;;;;;9.15;3.55;;;;;;;11.95;100.00;101026.59;5026100;28;20067;-80
2022/10/22 07:07:01;;;;;;;10.75;3.72;;;;;;;11.95;100.00;101019.63;5030379;28;20103;-80
2022/10/22 07:09:26;;;;;;;9.32;4.53;;;;;;;11.99;100.00;101030.59;5026626;28;20458;-80
2022/10/22 07:11:52;;;;;;;12.70;4.25;;;;;;;11.98;100.00;101028.09;5032261;28;20071;-81
2022/10/22 07:14:17;;;;;;;10.27;3.88;;;;;;;12.00;100.00;101036.59;5017180;28;20370;-80
2022/10/22 07:16:44;;;;;;;10.20;4.03;;;;;;;12.05;100.00;101043.06;5030312;28;20057;-80
2022/10/22 07:19:10;;;;;;;11.30;4.13;;;;;;;12.02;100.00;101037.28;5026574;28;20596;-81
2022/10/22 07:21:35;;;;;;;8.52;4.10;;;;;;;12.07;100.00;101045.53;5027957;28;20104;-80
2022/10/22 07:24:01;;;;;;;9.43;3.65;;;;;;;12.13;100.00;101052.81;5028968;28;20563;-80
2022/10/22 07:26:29;;;;;;;10.90;4.35;;;;;;;12.12;100.00;101052.00;5028918;28;20369;-80
2022/10/22 07:28:55;;;;;;;10.57;3.42;;;;;;;12.13;100.00;101048.44;5017719;28;20469;-80
2022/10/22 07:31:20;;;;;;;11.25;3.97;;;;;;;12.20;100.00;101059.13;5012786;28;20030;-80
2022/10/22 07:33:46;;;;;;;8.27;3.03;;;;;;;12.19;100.00;101047.91;5009478;28;20036;-80
2022/10/22 07:36:16;;;;;;;7.70;3.13;;;;;;;12.26;100.00;101055.19;5023645;28;20532;-80
2022/10/22 07:38:43;;;;;;;9.45;3.55;;;;;;;12.27;100.00;101049.03;5020581;28;20026;-80
2022/10/22 07:41:09;;;;;;;9.50;3.15;;;;;;;12.33;100.00;101053.72;5020104;28;20053;-80
2022/10/22 07:43:35;;;;;;;9.43;3.42;;;;;;;12.35;100.00;101051.81;5026832;28;20071;-82
2022/10/22 07:46:01;;;;;;;12.85;3.42;;;;;;;12.44;100.00;101071.81;5035665;28;20551;-82
2022/10/22 07:48:27;;;;;;;7.32;3.30;;;;;;;12.49;100.00;101074.84;5039687;28;20037;-81
2022/10/22 07:50:52;;;;;;;11.38;3.47;;;;;;;12.56;100.00;101065.59;5024570;28;20033;-82
2022/10/22 07:53:18;;;;;;;10.73;2.75;;;;;;;12.67;100.00;101068.09;5022135;28;20061;-81
2022/10/22 07:55:46;;;;;;;7.97;2.80;;;;;;;12.76;100.00;101072.47;5021287;28;20109;-81
2022/10/22 07:58:11;;;;;;;10.75;2.65;;;;;;;12.77;100.00;101068.91;5033617;28;20419;-81
2022/10/22 08:00:36;;;;;;;12.98;2.97;;;;;;;12.87;100.00;101083.75;5038922;28;20108;-81
2022/10/22 08:03:02;;;;;;;8.77;2.88;;;;;;;12.90;100.00;101075.66;5039093;28;20120;-81
2022/10/22 08:05:27;;;;;;;13.15;3.60;;;;;;;12.86;100.00;101079.50;5027283;28;20376;-81
2022/10/22 08:07:52;;;;;;;8.45;2.97;;;;;;;12.87;100.00;101088.97;5030265;28;20158;-81
2022/10/22 08:10:18;;;;;;;8.80;2.50;;;;;;;12.92;100.00;101097.19;5034327;28;20446;-82
2022/10/22 08:12:43;;;;;;;7.93;2.47;;;;;;;12.95;100.00;101096.91;5018968;28;20100;-82
2022/10/22 08:15:09;;;;;;;7.82;2.45;;;;;;;13.03;100.00;101110.09;5016429;28;20355;-81
2022/10/22 08:17:34;;;;;;;9.27;2.85;;;;;;;13.00;100.00;101099.94;5025540;28;20072;-81
2022/10/22 08:20:00;;;;;;;6.80;2.40;;;;;;;12.98;100.00;101099.25;5024088;28;20041;-81
2022/10/22 08:22:25;;;;;;;10.95;3.05;;;;;;;13.07;100.00;101106.25;5026660;28;20441;-81
2022/10/22 08:24:50;;;;;;;6.20;2.20;;;;;;;13.09;100.00;101108.75;5027237;28;20041;-81
2022/10/22 08:27:16;;;;;;;7.97;2.58;;;;;;;13.14;100.00;101117.81;5024431;28;20056;-82
2022/10/22 08:29:41;;;;;;;9.02;2.15;;;;;;;13.14;100.00;101115.19;5032974;28;20029;-82
2022/10/22 08:32:06;;;;;;;11.02;3.15;;;;;;;13.26;100.00;101116.75;5023097;28;20048;-81
2022/10/22 08:34:32;;;;;;;7.63;2.45;;;;;;;13.30;100.00;101119.88;5025940;28;20036;-82
2022/10/22 08:36:57;;;;;;;12.60;2.95;;;;;;;13.39;100.00;101123.47;5018867;28;20029;-81
2022/10/22 08:39:23;;;;;;;9.98;3.15;;;;;;;13.48;100.00;101136.50;5023257;28;20413;-82
2022/10/22 08:42:22;;;;;;;8.65;2.45;;;;;;;13.57;100.00;101137.47;5017298;28;20026;-82
2022/10/22 08:45:06;;;;;;;11.00;3.03;;;;;;;13.61;100.00;101146.66;5024625;28;20025;-82
2022/10/22 08:47:54;;;;;;;8.57;2.33;;;;;;;13.61;100.00;101151.88;5013775;28;20305;-82
2022/10/22 08:50:25;;;;;;;10.02;2.47;;;;;;;13.61;100.00;101154.47;5018966;28;20447;-82
2022/10/22 08:52:55;;;;;;;10.23;2.20;;;;;;;13.61;100.00;101146.66;5022795;28;20075;-82
2022/10/22 08:55:23;;;;;;;12.25;3.13;;;;;;;13.54;100.00;101149.00;5022405;28;20103;-82
2022/10/22 08:58:21;;;;;;;9.57;2.47;;;;;;;13.68;100.00;101163.41;5009182;28;20080;-83
2022/10/22 09:00:54;;;;;;;12.10;2.95;;;;;;;13.67;100.00;101161.75;5012029;28;20041;-82
2022/10/22 09:03:56;;;;;;;12.35;3.22;;;;;;;13.72;100.00;101170.00;5007010;28;20022;-83
2022/10/22 09:06:31;;;;;;;12.85;3.20;;;;;;;13.66;100.00;101165.31;5026876;28;20025;-82
2022/10/22 09:08:58;;;;;;;8.88;2.40;;;;;;;13.78;100.00;101171.22;5012489;28;20035;-82
2022/10/22 09:11:26;;;;;;;9.38;2.72;;;;;;;13.79;100.00;101181.50;5007968;28;20061;-83
2022/10/22 09:13:53;;;;;;;11.50;2.58;;;;;;;13.79;100.00;101176.28;5021294;28;20032;-83
2022/10/22 09:16:23;;;;;;;9.82;2.40;;;;;;;13.87;100.00;101177.38;5025046;28;20057;-83
2022/10/22 09:19:22;;;;;;;11.68;3.10;;;;;;;13.94;100.00;101194.97;5022380;28;20031;-83
2022/10/22 09:22:08;;;;;;;7.68;2.38;;;;;;;13.97;100.00;101191.25;5009049;28;20509;-83
2022/10/22 09:24:46;;;;;;;7.38;2.13;;;;;;;13.99;100.00;101197.13;5031377;28;20053;-83
2022/10/22 09:27:27;;;;;;;9.18;2.90;;;;;;;13.91;100.00;101176.97;5025668;28;20052;-83
2022/10/22 09:29:52;;;;;;;11.90;3.33;;;;;;;13.95;100.00;101190.56;5007379;28;20429;-82
2022/10/22 09:32:18;;;;;;;11.32;2.58;;;;;;;13.97;100.00;101199.06;5028802;28;20461;-82
2022/10/22 09:34:48;;;;;;;9.15;2.60;;;;;;;13.97;100.00;101193.84;5009045;28;20025;-83
2022/10/22 09:37:17;;;;;;;10.23;2.97;;;;;;;13.97;100.00;101205.09;5020168;28;20415;-83
2022/10/22 09:39:49;;;;;;;10.23;3.00;;;;;;;14.04;100.00;101210.59;5024484;28;20026;-83
2022/10/22 09:42:17;;;;;;;12.68;3.60;;;;;;;14.04;100.00;101221.03;5026751;28;20025;-83
2022/10/22 09:44:43;;;;;;;9.10;2.85;;;;;;;14.01;100.00;101206.50;5018591;28;20025;-83
2022/10/22 09:47:36;;;;;;;11.20;3.55;;;;;;;14.06;100.00;101221.72;5029345;28;20040;-83
2022/10/22 09:50:08;;;;;;;9.82;3.05;;;;;;;14.12;100.00;101223.78;5001257;28;20056;-83
2022/10/22 09:52:34;;;;;;;7.90;2.55;;;;;;;14.09;100.00;101224.88;5024579;28;20484;-83
2022/10/22 09:55:05;;;;;;;10.77;3.03;;;;;;;14.02;100.00;101218.56;5025982;28;20136;-83
2022/10/22 09:57:31;;;;;;;9.90;3.70;;;;;;;14.18;100.00;101243.28;5023618;28;20021;-83
2022/10/22 09:59:56;;;;;;;10.90;3.60;;;;;;;14.14;100.00;101226.25;5027972;28;20527;-83
2022/10/22 10:02:26;;;;;;;11.25;3.45;;;;;;;14.22;100.00;101240.25;5024675;28;20021;-83
2022/10/22 10:04:54;;;;;;;9.50;3.20;;;;;;;14.27;100.00;101238.03;5020412;28;20552;-83
2022/10/22 10:07:23;;;;;;;7.22;2.58;;;;;;;14.37;100.00;101247.66;5028007;28;20029;-83
2022/10/22 10:09:50;;;;;;;8.95;2.88;;;;;;;14.39;99.79;101250.94;4999707;28;20025;-83
2022/10/22 10:12:54;;;;;;;9.60;2.78;;;;;;;14.45;100.00;101251.22;5012624;28;20040;-83
2022/10/22 10:15:28;;;;;;;10.73;3.67;;;;;;;14.46;99.98;101265.91;5007725;28;20097;-83
2022/10/22 10:18:42;;;;;;;9.07;2.92;;;;;;;14.54;99.57;101249.56;5002661;28;20049;-83
2022/10/22 10:21:36;;;;;;;8.50;3.13;;;;;;;14.61;99.21;101250.66;5000340;28;20045;-83
2022/10/22 10:24:08;;;;;;;11.20;3.55;;;;;;;14.63;98.52;101264.41;5002787;28;20037;-83
2022/10/22 10:26:36;;;;;;;10.68;3.63;;;;;;;14.67;98.70;101257.91;5024985;28;20033;-83
2022/10/22 10:29:12;;;;;;;9.80;3.13;;;;;;;14.79;98.66;101277.66;5029990;28;20033;-83
2022/10/22 10:31:59;;;;;;;14.10;4.43;;;;;;;14.79;98.97;101259.38;5017259;28;20445;-83
2022/10/22 10:34:25;;;;;;;11.50;3.55;;;;;;;14.88;98.46;101262.94;4998769;28;20442;-83
2022/10/22 10:36:56;;;;;;;11.20;3.30;;;;;;;14.90;97.72;101268.03;5033867;28;20033;-83
2022/10/22 10:39:59;;;;;;;12.20;3.60;;;;;;;14.95;97.55;101268.44;5025676;28;20291;-83
2022/10/22 10:42:36;;;;;;;9.35;3.08;;;;;;;14.96;96.41;101270.06;4995655;28;20132;-83
2022/10/22 10:45:08;;;;;;;10.77;2.92;;;;;;;15.01;96.48;101273.06;5009075;28;20034;-83
2022/10/22 10:48:11;;;;;;;11.38;3.40;;;;;;;15.10;95.66;101261.78;5015282;28;20330;-83
2022/10/22 10:50:54;;;;;;;9.00;2.95;;;;;;;15.16;94.76;101282.09;5031270;28;20030;-83
2022/10/22 10:53:32;;;;;;;12.00;3.50;;;;;;;15.14;94.12;101277.03;5019370;28;20034;-84
2022/10/22 10:56:09;;;;;;;10.65;3.13;;;;;;;15.22;94.04;101278.91;5005055;28;20474;-83
2022/10/22 10:58:44;;;;;;;8.43;2.63;;;;;;;15.37;94.66;101287.94;5014856;28;20033;-83
2022/10/22 11:01:26;;;;;;;12.05;3.75;;;;;;;15.44;94.24;101280.31;5026972;28;20132;-83
2022/10/22 11:04:22;;;;;;;10.52;3.13;;;;;;;15.54;93.16;101282.88;5025438;28;20542;-83
2022/10/22 11:06:51;;;;;;;9.20;3.13;;;;;;;15.60;92.22;101277.09;5024474;28;20088;-83
2022/10/22 11:09:28;;;;;;;13.05;3.30;;;;;;;15.56;91.79;101267.88;5014949;28;20049;-83
2022/10/22 11:12:02;;;;;;;10.60;3.03;;;;;;;15.73;91.69;101280.19;5027023;28;20056;-84
2022/10/22 11:14:46;;;;;;;12.25;3.40;;;;;;;15.73;91.44;101290.66;5024894;28;20037;-83
2022/10/22 11:17:17;;;;;;;8.32;2.95;;;;;;;15.67;90.63;101286.00;5024938;28;20057;-84
2022/10/22 11:20:17;;;;;;;9.60;2.92;;;;;;;15.78;92.05;101293.66;5019083;28;20025;-84
2022/10/22 11:23:01;;;;;;;10.88;3.13;;;;;;;15.89;91.15;101280.38;5019522;28;20025;-81
2022/10/22 11:25:33;;;;;;;9.85;3.05;;;;;;;15.96;90.63;101269.31;5011129;28;20146;-86
2022/10/22 11:28:08;;;;;;;12.35;3.30;;;;;;;16.19;89.80;101291.44;5025581;28;20024;-82